sensor_id;sensor_type;location;lat;lon;timestamp;pressure;altitude;pressure_sealevel;temperature;humidity
34983;BME280;21187;50.976;13.720;2023-11-18T00:04:55;98768.84;;;6.94;58.77
34983;BME280;21187;50.976;13.720;2023-11-18T00:09:57;98765.84;;;6.87;58.52
34983;BME280;21187;50.976;13.720;2023-11-18T00:14:59;98772.56;;;6.75;58.74
34983;BME280;21187;50.976;13.720;2023-11-18T00:20:01;98792.50;;;6.74;58.80
34983;BME280;21187;50.976;13.720;2023-11-18T00:25:05;98786.97;;;6.71;58.88
34983;BME280;21187;50.976;13.720;2023-11-18T00:30:08;98802.31;;;6.70;58.92
34983;BME280;21187;50.976;13.720;2023-11-18T00:35:12;98805.81;;;6.71;58.64
34983;BME280;21187;50.976;13.720;2023-11-18T00:40:14;98820.06;;;6.71;58.70
34983;BME280;21187;50.976;13.720;2023-11-18T00:45:19;98824.34;;;6.72;58.56
34983;BME280;21187;50.976;13.720;2023-11-18T00:50:22;98835.59;;;6.74;58.55
34983;BME280;21187;50.976;13.720;2023-11-18T00:55:24;98844.16;;;6.76;58.64
34983;BME280;21187;50.976;13.720;2023-11-18T01:00:27;98844.41;;;6.66;59.23
34983;BME280;21187;50.976;13.720;2023-11-18T01:05:29;98847.59;;;6.68;59.05
34983;BME280;21187;50.976;13.720;2023-11-18T01:10:33;98852.34;;;6.71;58.65
34983;BME280;21187;50.976;13.720;2023-11-18T01:15:35;98855.56;;;6.73;58.58
34983;BME280;21187;50.976;13.720;2023-11-18T01:20:37;98867.72;;;6.71;58.83
34983;BME280;21187;50.976;13.720;2023-11-18T01:25:39;98863.00;;;6.54;59.32
34983;BME280;21187;50.976;13.720;2023-11-18T01:30:41;98862.28;;;6.39;59.67
34983;BME280;21187;50.976;13.720;2023-11-18T01:35:46;98873.81;;;6.40;59.36
34983;BME280;21187;50.976;13.720;2023-11-18T01:40:48;98868.28;;;6.36;59.64
34983;BME280;21187;50.976;13.720;2023-11-18T01:45:50;98874.75;;;6.35;59.49
34983;BME280;21187;50.976;13.720;2023-11-18T01:50:55;98867.47;;;6.36;59.22
34983;BME280;21187;50.976;13.720;2023-11-18T01:55:59;98879.72;;;6.28;59.57
34983;BME280;21187;50.976;13.720;2023-11-18T02:01:02;98874.97;;;6.25;59.61
34983;BME280;21187;50.976;13.720;2023-11-18T02:06:05;98882.63;;;6.18;59.92
34983;BME280;21187;50.976;13.720;2023-11-18T02:11:25;98885.84;;;6.20;59.59
34983;BME280;21187;50.976;13.720;2023-11-18T02:16:31;98895.50;;;6.21;59.93
34983;BME280;21187;50.976;13.720;2023-11-18T02:21:34;98888.41;;;6.25;59.62
34983;BME280;21187;50.976;13.720;2023-11-18T02:26:39;98896.19;;;6.26;59.57
34983;BME280;21187;50.976;13.720;2023-11-18T02:31:41;98892.59;;;6.31;59.46
34983;BME280;21187;50.976;13.720;2023-11-18T02:36:47;98901.34;;;6.37;59.29
34983;BME280;21187;50.976;13.720;2023-11-18T02:41:52;98900.56;;;6.36;59.64
34983;BME280;21187;50.976;13.720;2023-11-18T02:46:54;98894.16;;;6.32;59.44
34983;BME280;21187;50.976;13.720;2023-11-18T02:51:57;98895.41;;;6.26;59.78
34983;BME280;21187;50.976;13.720;2023-11-18T02:56:59;98888.91;;;6.27;59.82
34983;BME280;21187;50.976;13.720;2023-11-18T03:02:01;98898.97;;;6.35;59.55
34983;BME280;21187;50.976;13.720;2023-11-18T03:07:03;98896.38;;;6.30;59.87
34983;BME280;21187;50.976;13.720;2023-11-18T03:12:06;98892.09;;;6.29;59.81
34983;BME280;21187;50.976;13.720;2023-11-18T03:17:09;98901.25;;;6.28;59.59
34983;BME280;21187;50.976;13.720;2023-11-18T03:22:11;98891.19;;;6.33;59.23
34983;BME280;21187;50.976;13.720;2023-11-18T03:27:15;98894.16;;;6.32;59.54
34983;BME280;21187;50.976;13.720;2023-11-18T03:32:17;98903.72;;;6.38;59.21
34983;BME280;21187;50.976;13.720;2023-11-18T03:37:19;98916.69;;;6.36;59.62
34983;BME280;21187;50.976;13.720;2023-11-18T03:42:21;98920.66;;;6.39;59.23
34983;BME280;21187;50.976;13.720;2023-11-18T03:47:23;98915.69;;;6.32;59.35
34983;BME280;21187;50.976;13.720;2023-11-18T03:52:25;98918.13;;;6.20;59.40
34983;BME280;21187;50.976;13.720;2023-11-18T03:57:29;98915.72;;;6.18;59.22
34983;BME280;21187;50.976;13.720;2023-11-18T04:02:31;98919.72;;;6.21;59.14
34983;BME280;21187;50.976;13.720;2023-11-18T04:07:34;98918.72;;;6.16;59.35
34983;BME280;21187;50.976;13.720;2023-11-18T04:12:36;98925.91;;;6.07;59.37
34983;BME280;21187;50.976;13.720;2023-11-18T04:17:39;98929.69;;;6.06;59.33
34983;BME280;21187;50.976;13.720;2023-11-18T04:22:43;98931.06;;;6.18;59.10
34983;BME280;21187;50.976;13.720;2023-11-18T04:27:45;98939.63;;;6.33;58.78
34983;BME280;21187;50.976;13.720;2023-11-18T04:32:47;98943.59;;;6.36;58.68
34983;BME280;21187;50.976;13.720;2023-11-18T04:37:50;98942.97;;;6.39;58.67
34983;BME280;21187;50.976;13.720;2023-11-18T04:42:51;98950.94;;;6.44;58.68
34983;BME280;21187;50.976;13.720;2023-11-18T04:47:53;98942.22;;;6.25;59.32
34983;BME280;21187;50.976;13.720;2023-11-18T04:52:56;98944.03;;;6.15;59.38
34983;BME280;21187;50.976;13.720;2023-11-18T04:57:58;98939.25;;;6.12;59.46
34983;BME280;21187;50.976;13.720;2023-11-18T05:03:00;98939.81;;;6.23;59.40
34983;BME280;21187;50.976;13.720;2023-11-18T05:08:02;98947.50;;;6.30;59.04
34983;BME280;21187;50.976;13.720;2023-11-18T05:13:04;98949.19;;;6.26;59.60
34983;BME280;21187;50.976;13.720;2023-11-18T05:18:06;98951.97;;;6.21;59.49
34983;BME280;21187;50.976;13.720;2023-11-18T05:23:13;98949.00;;;6.22;59.47
34983;BME280;21187;50.976;13.720;2023-11-18T05:28:15;98959.25;;;6.20;59.93
34983;BME280;21187;50.976;13.720;2023-11-18T05:33:18;98961.75;;;6.16;59.79
34983;BME280;21187;50.976;13.720;2023-11-18T05:38:21;98963.31;;;6.18;59.61
34983;BME280;21187;50.976;13.720;2023-11-18T05:43:31;98961.34;;;6.23;59.60
34983;BME280;21187;50.976;13.720;2023-11-18T05:48:44;98946.59;;;6.21;59.43
34983;BME280;21187;50.976;13.720;2023-11-18T05:53:46;98973.31;;;6.17;59.90
34983;BME280;21187;50.976;13.720;2023-11-18T05:58:49;98972.22;;;6.18;60.03
34983;BME280;21187;50.976;13.720;2023-11-18T06:03:51;98963.84;;;6.20;59.95
34983;BME280;21187;50.976;13.720;2023-11-18T06:08:53;98971.13;;;6.19;60.28
34983;BME280;21187;50.976;13.720;2023-11-18T06:13:55;98978.47;;;6.27;59.98
34983;BME280;21187;50.976;13.720;2023-11-18T06:18:58;98981.75;;;6.38;59.81
34983;BME280;21187;50.976;13.720;2023-11-18T06:24:03;98985.00;;;6.49;59.29
34983;BME280;21187;50.976;13.720;2023-11-18T06:29:07;98995.34;;;6.56;59.18
34983;BME280;21187;50.976;13.720;2023-11-18T06:34:09;99000.63;;;6.61;59.35
34983;BME280;21187;50.976;13.720;2023-11-18T06:39:11;98995.47;;;6.50;59.32
34983;BME280;21187;50.976;13.720;2023-11-18T06:44:15;99002.19;;;6.39;59.93
34983;BME280;21187;50.976;13.720;2023-11-18T06:49:19;99011.13;;;6.35;59.85
34983;BME280;21187;50.976;13.720;2023-11-18T06:54:21;99007.34;;;6.49;59.59
34983;BME280;21187;50.976;13.720;2023-11-18T06:59:24;99013.50;;;6.50;59.74
34983;BME280;21187;50.976;13.720;2023-11-18T07:04:26;99014.28;;;6.50;59.71
34983;BME280;21187;50.976;13.720;2023-11-18T07:09:28;99013.50;;;6.50;59.55
34983;BME280;21187;50.976;13.720;2023-11-18T07:14:30;99014.13;;;6.47;60.04
34983;BME280;21187;50.976;13.720;2023-11-18T07:19:32;99018.69;;;6.46;59.95
34983;BME280;21187;50.976;13.720;2023-11-18T07:24:34;99016.72;;;6.38;60.04
34983;BME280;21187;50.976;13.720;2023-11-18T07:29:37;99027.38;;;6.43;60.02
34983;BME280;21187;50.976;13.720;2023-11-18T07:34:38;99031.06;;;6.47;60.33
34983;BME280;21187;50.976;13.720;2023-11-18T07:39:42;99034.84;;;6.46;60.58
34983;BME280;21187;50.976;13.720;2023-11-18T07:44:50;99032.13;;;6.60;60.34
34983;BME280;21187;50.976;13.720;2023-11-18T07:49:53;99039.19;;;6.70;59.96
34983;BME280;21187;50.976;13.720;2023-11-18T07:54:55;99037.38;;;6.79;60.13
34983;BME280;21187;50.976;13.720;2023-11-18T07:59:57;99045.75;;;6.92;60.02
34983;BME280;21187;50.976;13.720;2023-11-18T08:05:13;99056.94;;;6.85;60.18
34983;BME280;21187;50.976;13.720;2023-11-18T08:10:17;99061.31;;;6.81;60.65
34983;BME280;21187;50.976;13.720;2023-11-18T08:15:21;99067.50;;;6.81;60.33
34983;BME280;21187;50.976;13.720;2023-11-18T08:20:23;99063.09;;;6.86;60.43
34983;BME280;21187;50.976;13.720;2023-11-18T08:25:27;99070.09;;;6.87;60.46
34983;BME280;21187;50.976;13.720;2023-11-18T08:30:29;99080.75;;;6.92;60.67
34983;BME280;21187;50.976;13.720;2023-11-18T08:35:31;99085.59;;;7.04;60.62
34983;BME280;21187;50.976;13.720;2023-11-18T08:40:33;99089.47;;;7.11;60.21
34983;BME280;21187;50.976;13.720;2023-11-18T08:45:36;99095.34;;;7.13;60.15
34983;BME280;21187;50.976;13.720;2023-11-18T08:50:39;99094.13;;;7.20;60.44
34983;BME280;21187;50.976;13.720;2023-11-18T08:55:42;99103.19;;;7.24;60.00
34983;BME280;21187;50.976;13.720;2023-11-18T09:00:55;99105.91;;;7.24;59.77
34983;BME280;21187;50.976;13.720;2023-11-18T09:05:58;99099.31;;;7.30;59.81
34983;BME280;21187;50.976;13.720;2023-11-18T09:11:07;99103.84;;;7.43;59.40
34983;BME280;21187;50.976;13.720;2023-11-18T09:16:11;99106.03;;;7.41;59.47
34983;BME280;21187;50.976;13.720;2023-11-18T09:21:13;99111.19;;;7.52;59.67
34983;BME280;21187;50.976;13.720;2023-11-18T09:26:21;99122.09;;;7.69;59.17
34983;BME280;21187;50.976;13.720;2023-11-18T09:31:23;99112.16;;;7.78;58.47
34983;BME280;21187;50.976;13.720;2023-11-18T09:36:25;99114.97;;;7.73;59.02
34983;BME280;21187;50.976;13.720;2023-11-18T09:41:30;99105.66;;;7.79;58.97
34983;BME280;21187;50.976;13.720;2023-11-18T09:46:35;99102.22;;;7.88;57.96
34983;BME280;21187;50.976;13.720;2023-11-18T09:51:43;99095.97;;;8.01;57.66
34983;BME280;21187;50.976;13.720;2023-11-18T10:02:10;99099.66;;;8.14;56.78
34983;BME280;21187;50.976;13.720;2023-11-18T10:07:13;99112.56;;;8.26;56.79
34983;BME280;21187;50.976;13.720;2023-11-18T10:12:18;99101.78;;;8.26;56.60
34983;BME280;21187;50.976;13.720;2023-11-18T10:17:26;99093.22;;;8.24;56.42
34983;BME280;21187;50.976;13.720;2023-11-18T10:22:29;99093.53;;;8.31;56.28
34983;BME280;21187;50.976;13.720;2023-11-18T10:27:33;99095.41;;;8.22;54.71
34983;BME280;21187;50.976;13.720;2023-11-18T10:32:36;99095.13;;;8.32;54.62
34983;BME280;21187;50.976;13.720;2023-11-18T10:37:39;99101.53;;;8.45;53.74
34983;BME280;21187;50.976;13.720;2023-11-18T10:42:45;99096.69;;;8.56;53.12
34983;BME280;21187;50.976;13.720;2023-11-18T10:47:50;99098.31;;;8.74;53.01
34983;BME280;21187;50.976;13.720;2023-11-18T10:52:54;99098.19;;;8.97;52.81
34983;BME280;21187;50.976;13.720;2023-11-18T10:57:57;99087.56;;;9.09;52.17
34983;BME280;21187;50.976;13.720;2023-11-18T11:03:04;99094.09;;;9.08;51.28
34983;BME280;21187;50.976;13.720;2023-11-18T11:08:07;99075.78;;;8.96;49.86
34983;BME280;21187;50.976;13.720;2023-11-18T11:13:10;99084.88;;;9.09;49.22
34983;BME280;21187;50.976;13.720;2023-11-18T11:18:14;99082.81;;;9.24;49.60
34983;BME280;21187;50.976;13.720;2023-11-18T11:29:07;99102.31;;;8.94;48.80
34983;BME280;21187;50.976;13.720;2023-11-18T11:34:20;99108.00;;;8.75;48.06
34983;BME280;21187;50.976;13.720;2023-11-18T11:39:22;99101.00;;;8.74;48.67
34983;BME280;21187;50.976;13.720;2023-11-18T11:44:27;99099.75;;;8.80;48.81
34983;BME280;21187;50.976;13.720;2023-11-18T11:49:50;99084.84;;;8.92;48.64
34983;BME280;21187;50.976;13.720;2023-11-18T11:55:32;99085.47;;;8.89;48.42
34983;BME280;21187;50.976;13.720;2023-11-18T12:00:36;99071.00;;;8.85;48.48
34983;BME280;21187;50.976;13.720;2023-11-18T12:05:44;99073.56;;;8.90;48.45
34983;BME280;21187;50.976;13.720;2023-11-18T12:10:54;99066.06;;;8.87;48.13
34983;BME280;21187;50.976;13.720;2023-11-18T12:15:56;99057.66;;;9.23;48.84
34983;BME280;21187;50.976;13.720;2023-11-18T12:21:06;99051.41;;;9.75;48.98
34983;BME280;21187;50.976;13.720;2023-11-18T12:26:38;99040.81;;;10.00;48.89
34983;BME280;21187;50.976;13.720;2023-11-18T12:31:42;99045.50;;;10.21;48.19
34983;BME280;21187;50.976;13.720;2023-11-18T12:36:59;99032.00;;;10.12;48.16
34983;BME280;21187;50.976;13.720;2023-11-18T12:42:09;99031.88;;;10.08;48.86
34983;BME280;21187;50.976;13.720;2023-11-18T12:47:16;99042.22;;;10.06;48.28
34983;BME280;21187;50.976;13.720;2023-11-18T12:52:24;99033.84;;;9.99;48.88
34983;BME280;21187;50.976;13.720;2023-11-18T12:57:29;99006.72;;;9.69;48.26
34983;BME280;21187;50.976;13.720;2023-11-18T13:02:33;99009.75;;;9.59;48.36
34983;BME280;21187;50.976;13.720;2023-11-18T13:07:36;99011.63;;;9.67;48.63
34983;BME280;21187;50.976;13.720;2023-11-18T13:12:39;99002.91;;;9.70;48.42
34983;BME280;21187;50.976;13.720;2023-11-18T13:17:41;99015.09;;;9.76;48.54
34983;BME280;21187;50.976;13.720;2023-11-18T13:22:43;99012.19;;;9.99;48.61
34983;BME280;21187;50.976;13.720;2023-11-18T13:27:49;99000.69;;;10.02;48.52
34983;BME280;21187;50.976;13.720;2023-11-18T13:32:52;99005.19;;;9.98;48.21
34983;BME280;21187;50.976;13.720;2023-11-18T13:37:54;99013.47;;;9.93;48.44
34983;BME280;21187;50.976;13.720;2023-11-18T13:43:02;99010.28;;;9.91;48.81
34983;BME280;21187;50.976;13.720;2023-11-18T13:48:06;99022.44;;;9.85;48.36
34983;BME280;21187;50.976;13.720;2023-11-18T13:53:10;99017.47;;;9.87;48.68
34983;BME280;21187;50.976;13.720;2023-11-18T13:58:12;99021.19;;;9.73;48.15
34983;BME280;21187;50.976;13.720;2023-11-18T14:03:14;99010.06;;;9.66;49.11
34983;BME280;21187;50.976;13.720;2023-11-18T14:08:18;99009.75;;;9.59;48.98
34983;BME280;21187;50.976;13.720;2023-11-18T14:13:21;99002.75;;;9.58;48.54
34983;BME280;21187;50.976;13.720;2023-11-18T14:18:23;99003.69;;;9.62;48.73
34983;BME280;21187;50.976;13.720;2023-11-18T14:23:25;99009.91;;;9.62;49.05
34983;BME280;21187;50.976;13.720;2023-11-18T14:28:27;99001.81;;;9.54;48.86
34983;BME280;21187;50.976;13.720;2023-11-18T14:33:30;98998.66;;;9.52;48.91
34983;BME280;21187;50.976;13.720;2023-11-18T14:38:35;98986.88;;;9.47;49.07
34983;BME280;21187;50.976;13.720;2023-11-18T14:43:39;98994.84;;;9.35;49.36
34983;BME280;21187;50.976;13.720;2023-11-18T14:48:42;98989.78;;;9.25;48.82
34983;BME280;21187;50.976;13.720;2023-11-18T14:53:44;98983.59;;;9.15;49.50
34983;BME280;21187;50.976;13.720;2023-11-18T14:58:47;98978.38;;;9.02;49.61
34983;BME280;21187;50.976;13.720;2023-11-18T15:03:51;98962.16;;;8.93;49.48
34983;BME280;21187;50.976;13.720;2023-11-18T15:08:53;98955.03;;;8.79;49.51
34983;BME280;21187;50.976;13.720;2023-11-18T15:13:56;98959.63;;;8.70;49.59
34983;BME280;21187;50.976;13.720;2023-11-18T15:18:58;98975.97;;;8.56;49.93
34983;BME280;21187;50.976;13.720;2023-11-18T15:24:00;98979.13;;;8.49;49.70
34983;BME280;21187;50.976;13.720;2023-11-18T15:29:03;98952.91;;;8.41;50.14
34983;BME280;21187;50.976;13.720;2023-11-18T15:34:11;98940.66;;;8.35;50.04
34983;BME280;21187;50.976;13.720;2023-11-18T15:39:14;98936.22;;;8.30;49.80
34983;BME280;21187;50.976;13.720;2023-11-18T15:44:16;98917.00;;;8.23;49.65
34983;BME280;21187;50.976;13.720;2023-11-18T15:49:22;98913.16;;;8.15;50.48
34983;BME280;21187;50.976;13.720;2023-11-18T15:54:24;98916.81;;;8.11;50.29
34983;BME280;21187;50.976;13.720;2023-11-18T15:59:26;98923.47;;;8.05;50.13
34983;BME280;21187;50.976;13.720;2023-11-18T16:04:29;98920.63;;;8.01;49.87
34983;BME280;21187;50.976;13.720;2023-11-18T16:09:32;98920.88;;;7.82;50.27
34983;BME280;21187;50.976;13.720;2023-11-18T16:14:34;98908.44;;;7.63;50.36
34983;BME280;21187;50.976;13.720;2023-11-18T16:19:37;98884.00;;;7.60;50.67
34983;BME280;21187;50.976;13.720;2023-11-18T16:24:40;98873.72;;;7.62;50.46
34983;BME280;21187;50.976;13.720;2023-11-18T16:29:43;98871.97;;;7.66;50.36
34983;BME280;21187;50.976;13.720;2023-11-18T16:34:46;98870.38;;;7.65;50.58
34983;BME280;21187;50.976;13.720;2023-11-18T16:39:48;98874.19;;;7.64;50.63
34983;BME280;21187;50.976;13.720;2023-11-18T16:44:53;98878.16;;;7.58;50.63
34983;BME280;21187;50.976;13.720;2023-11-18T16:49:55;98874.63;;;7.48;50.43
34983;BME280;21187;50.976;13.720;2023-11-18T16:55:05;98850.00;;;7.41;50.68
34983;BME280;21187;50.976;13.720;2023-11-18T17:00:11;98857.75;;;7.34;50.91
34983;BME280;21187;50.976;13.720;2023-11-18T17:05:27;98873.31;;;7.06;51.18
34983;BME280;21187;50.976;13.720;2023-11-18T17:10:33;98872.91;;;6.90;51.56
34983;BME280;21187;50.976;13.720;2023-11-18T17:15:35;98858.47;;;6.86;51.26
34983;BME280;21187;50.976;13.720;2023-11-18T17:20:37;98855.28;;;6.83;51.60
34983;BME280;21187;50.976;13.720;2023-11-18T17:25:39;98843.91;;;6.87;51.31
34983;BME280;21187;50.976;13.720;2023-11-18T17:30:41;98833.13;;;6.87;51.22
34983;BME280;21187;50.976;13.720;2023-11-18T17:35:43;98851.53;;;6.93;51.49
34983;BME280;21187;50.976;13.720;2023-11-18T17:40:45;98855.53;;;6.96;51.35
34983;BME280;21187;50.976;13.720;2023-11-18T17:45:48;98834.44;;;6.98;51.63
34983;BME280;21187;50.976;13.720;2023-11-18T17:50:51;98811.94;;;6.94;51.54
34983;BME280;21187;50.976;13.720;2023-11-18T17:55:55;98809.56;;;6.92;51.56
34983;BME280;21187;50.976;13.720;2023-11-18T18:00:57;98806.56;;;6.94;51.54
34983;BME280;21187;50.976;13.720;2023-11-18T18:06:00;98809.31;;;7.03;51.96
34983;BME280;21187;50.976;13.720;2023-11-18T18:11:02;98798.41;;;7.08;51.36
34983;BME280;21187;50.976;13.720;2023-11-18T18:16:06;98781.28;;;7.12;51.97
34983;BME280;21187;50.976;13.720;2023-11-18T18:21:10;98772.09;;;7.13;51.67
34983;BME280;21187;50.976;13.720;2023-11-18T18:26:12;98764.03;;;7.13;51.79
34983;BME280;21187;50.976;13.720;2023-11-18T18:31:14;98747.88;;;7.13;51.83
34983;BME280;21187;50.976;13.720;2023-11-18T18:36:17;98753.75;;;7.15;51.67
34983;BME280;21187;50.976;13.720;2023-11-18T18:41:20;98729.50;;;7.15;51.55
34983;BME280;21187;50.976;13.720;2023-11-18T18:46:23;98730.47;;;7.20;51.92
34983;BME280;21187;50.976;13.720;2023-11-18T18:51:27;98717.00;;;7.20;51.88
34983;BME280;21187;50.976;13.720;2023-11-18T18:56:29;98712.56;;;7.24;51.62
34983;BME280;21187;50.976;13.720;2023-11-18T19:01:31;98706.53;;;7.27;51.55
34983;BME280;21187;50.976;13.720;2023-11-18T19:06:33;98712.41;;;7.29;51.59
34983;BME280;21187;50.976;13.720;2023-11-18T19:11:37;98697.69;;;7.35;51.92
34983;BME280;21187;50.976;13.720;2023-11-18T19:16:41;98684.53;;;7.42;51.64
34983;BME280;21187;50.976;13.720;2023-11-18T19:21:45;98684.38;;;7.47;51.64
34983;BME280;21187;50.976;13.720;2023-11-18T19:26:47;98666.13;;;7.53;51.50
34983;BME280;21187;50.976;13.720;2023-11-18T19:31:50;98677.09;;;7.57;51.17
34983;BME280;21187;50.976;13.720;2023-11-18T19:36:52;98690.56;;;7.48;51.56
34983;BME280;21187;50.976;13.720;2023-11-18T19:41:55;98673.59;;;7.47;51.63
34983;BME280;21187;50.976;13.720;2023-11-18T19:46:57;98668.84;;;7.44;51.68
34983;BME280;21187;50.976;13.720;2023-11-18T19:51:59;98663.47;;;7.44;51.89
34983;BME280;21187;50.976;13.720;2023-11-18T19:57:02;98654.59;;;7.35;52.35
34983;BME280;21187;50.976;13.720;2023-11-18T20:02:05;98661.22;;;7.29;51.95
34983;BME280;21187;50.976;13.720;2023-11-18T20:07:09;98655.53;;;7.39;52.15
34983;BME280;21187;50.976;13.720;2023-11-18T20:12:11;98636.16;;;7.55;51.83
34983;BME280;21187;50.976;13.720;2023-11-18T20:17:14;98621.44;;;7.61;51.96
34983;BME280;21187;50.976;13.720;2023-11-18T20:22:18;98620.97;;;7.59;52.21
34983;BME280;21187;50.976;13.720;2023-11-18T20:27:23;98612.41;;;7.57;51.68
34983;BME280;21187;50.976;13.720;2023-11-18T20:32:26;98600.97;;;7.60;51.33
34983;BME280;21187;50.976;13.720;2023-11-18T20:37:28;98612.56;;;7.60;51.65
34983;BME280;21187;50.976;13.720;2023-11-18T20:42:31;98621.09;;;7.71;51.59
34983;BME280;21187;50.976;13.720;2023-11-18T20:47:33;98614.91;;;7.79;51.14
34983;BME280;21187;50.976;13.720;2023-11-18T20:52:37;98603.63;;;7.86;51.40
34983;BME280;21187;50.976;13.720;2023-11-18T20:57:39;98572.53;;;7.89;51.28
34983;BME280;21187;50.976;13.720;2023-11-18T21:02:41;98570.44;;;7.94;51.25
34983;BME280;21187;50.976;13.720;2023-11-18T21:07:44;98581.22;;;7.94;51.49
34983;BME280;21187;50.976;13.720;2023-11-18T21:12:47;98558.38;;;8.00;51.16
34983;BME280;21187;50.976;13.720;2023-11-18T21:17:52;98549.97;;;8.02;51.46
34983;BME280;21187;50.976;13.720;2023-11-18T21:22:54;98542.53;;;7.99;51.41
34983;BME280;21187;50.976;13.720;2023-11-18T21:27:57;98545.13;;;7.87;51.67
34983;BME280;21187;50.976;13.720;2023-11-18T21:33:05;98547.50;;;7.79;51.81
34983;BME280;21187;50.976;13.720;2023-11-18T21:38:09;98544.81;;;7.79;51.44
34983;BME280;21187;50.976;13.720;2023-11-18T21:43:11;98543.03;;;7.83;51.20
34983;BME280;21187;50.976;13.720;2023-11-18T21:48:13;98518.28;;;7.90;51.61
34983;BME280;21187;50.976;13.720;2023-11-18T21:53:15;98509.22;;;7.95;51.79
34983;BME280;21187;50.976;13.720;2023-11-18T21:58:17;98496.19;;;7.97;51.29
34983;BME280;21187;50.976;13.720;2023-11-18T22:03:19;98485.88;;;7.99;51.41
34983;BME280;21187;50.976;13.720;2023-11-18T22:08:21;98494.47;;;8.01;51.58
34983;BME280;21187;50.976;13.720;2023-11-18T22:13:23;98478.91;;;7.98;51.66
34983;BME280;21187;50.976;13.720;2023-11-18T22:18:27;98475.44;;;7.97;51.49
34983;BME280;21187;50.976;13.720;2023-11-18T22:23:29;98458.44;;;7.97;52.19
34983;BME280;21187;50.976;13.720;2023-11-18T22:28:31;98486.72;;;7.91;51.97
34983;BME280;21187;50.976;13.720;2023-11-18T22:33:33;98488.16;;;7.88;52.83
34983;BME280;21187;50.976;13.720;2023-11-18T22:38:36;98478.31;;;7.92;53.10
34983;BME280;21187;50.976;13.720;2023-11-18T22:43:40;98459.41;;;8.01;52.89
34983;BME280;21187;50.976;13.720;2023-11-18T22:48:43;98460.16;;;8.02;52.96
34983;BME280;21187;50.976;13.720;2023-11-18T22:53:48;98451.38;;;8.13;53.00
34983;BME280;21187;50.976;13.720;2023-11-18T22:58:51;98443.09;;;8.19;52.87
34983;BME280;21187;50.976;13.720;2023-11-18T23:03:54;98435.78;;;8.19;52.99
34983;BME280;21187;50.976;13.720;2023-11-18T23:08:59;98424.56;;;8.17;53.25
34983;BME280;21187;50.976;13.720;2023-11-18T23:14:01;98436.78;;;8.14;53.32
34983;BME280;21187;50.976;13.720;2023-11-18T23:19:05;98424.75;;;8.12;52.87
34983;BME280;21187;50.976;13.720;2023-11-18T23:24:09;98396.50;;;8.09;53.42
34983;BME280;21187;50.976;13.720;2023-11-18T23:29:14;98387.34;;;8.02;53.33
34983;BME280;21187;50.976;13.720;2023-11-18T23:34:15;98353.66;;;7.87;53.46
34983;BME280;21187;50.976;13.720;2023-11-18T23:39:18;98334.25;;;7.72;53.62
34983;BME280;21187;50.976;13.720;2023-11-18T23:44:25;98304.47;;;7.60;53.94
34983;BME280;21187;50.976;13.720;2023-11-18T23:49:27;98290.16;;;7.47;54.22
34983;BME280;21187;50.976;13.720;2023-11-18T23:54:29;98260.94;;;7.28;54.40
34983;BME280;21187;50.976;13.720;2023-11-18T23:59:32;98262.31;;;7.04;54.85
